Time;durP1;ratioP1;P1;durP2;ratioP2;P2;SDS_P1;SDS_P2;PMS_P1;PMS_P2;Temp;Humidity;BMP_temperature;BMP_pressure;BME280_temperature;BME280_humidity;BME280_pressure;Samples;Min_cycle;Max_cycle;Signal;HPM_P1;HPM_P2
2023/05/06 00:00:59;;;;;;;;;;;;;;;;;;5095230;28;19908;-69
2023/05/06 00:03:25;;;;;;;;;;;;;;;;;;5094930;28;20357;-69
2023/05/06 00:05:51;;;;;;;;;;;;;;;;;;5095096;28;20018;-69
2023/05/06 00:08:17;;;;;;;;;;;;;;;;;;5076915;28;19908;-69
2023/05/06 00:10:43;;;;;;;;;;;;;;;;;;5094587;28;19912;-69
2023/05/06 00:13:09;;;;;;;;;;;;;;;;;;5095014;28;19986;-69
2023/05/06 00:15:35;;;;;;;;;;;;;;;;;;5094870;28;19908;-69
2023/05/06 00:18:01;;;;;;;;;;;;;;;;;;5094522;28;19908;-69
2023/05/06 00:20:27;;;;;;;;;;;;;;;;;;5095362;28;20316;-69
2023/05/06 00:22:53;;;;;;;;;;;;;;;;;;5094847;28;19935;-69
2023/05/06 00:25:19;;;;;;;;;;;;;;;;;;5094120;28;19908;-69
2023/05/06 00:27:45;;;;;;;;;;;;;;;;;;5094941;28;20393;-69
2023/05/06 00:30:11;;;;;;;;;;;;;;;;;;5076514;28;20356;-69
2023/05/06 00:32:37;;;;;;;;;;;;;;;;;;5094220;28;19908;-69
2023/05/06 00:35:03;;;;;;;;;;;;;;;;;;5094563;28;20010;-69
2023/05/06 00:37:29;;;;;;;;;;;;;;;;;;5094180;28;19915;-69
2023/05/06 00:39:55;;;;;;;;;;;;;;;;;;5094507;28;19908;-69
2023/05/06 00:42:22;;;;;;;;;;;;;;;;;;5094734;28;19916;-69
2023/05/06 00:44:48;;;;;;;;;;;;;;;;;;5094070;28;19915;-69
2023/05/06 00:47:13;;;;;;;;;;;;;;;;;;5094214;28;19916;-69
2023/05/06 00:49:39;;;;;;;;;;;;;;;;;;5094335;28;19908;-69
2023/05/06 00:52:05;;;;;;;;;;;;;;;;;;5093931;28;19908;-69
2023/05/06 00:54:31;;;;;;;;;;;;;;;;;;5094223;28;19950;-69
2023/05/06 00:56:57;;;;;;;;;;;;;;;;;;5094468;28;19915;-69
2023/05/06 00:59:23;;;;;;;;;;;;;;;;;;5094010;28;19919;-69
2023/05/06 01:01:51;;;;;;;;;;;;;;;;;;5093914;28;19908;-69
2023/05/06 01:04:17;;;;;;;;;;;;;;;;;;5076017;28;20009;-69
2023/05/06 01:06:43;;;;;;;;;;;;;;;;;;5093894;28;19920;-69
2023/05/06 01:09:09;;;;;;;;;;;;;;;;;;5094047;28;19916;-69
2023/05/06 01:11:35;;;;;;;;;;;;;;;;;;5094257;28;19915;-69
2023/05/06 01:14:01;;;;;;;;;;;;;;;;;;5075550;28;19908;-69
2023/05/06 01:16:28;;;;;;;;;;;;;;;;;;5093971;28;19959;-69
2023/05/06 01:18:54;;;;;;;;;;;;;;;;;;5093943;28;20339;-69
2023/05/06 01:21:20;;;;;;;;;;;;;;;;;;5093553;28;19913;-69
2023/05/06 01:23:46;;;;;;;;;;;;;;;;;;5093902;28;19908;-69
2023/05/06 01:26:12;;;;;;;;;;;;;;;;;;5093562;28;19924;-69
2023/05/06 01:28:38;;;;;;;;;;;;;;;;;;5093475;28;19915;-69
2023/05/06 01:31:04;;;;;;;;;;;;;;;;;;5093860;28;19915;-69
2023/05/06 01:33:30;;;;;;;;;;;;;;;;;;5093835;28;19908;-69
2023/05/06 01:35:56;;;;;;;;;;;;;;;;;;5093335;28;19908;-69
2023/05/06 01:38:22;;;;;;;;;;;;;;;;;;5093796;28;19908;-69
2023/05/06 01:40:48;;;;;;;;;;;;;;;;;;5093364;28;19908;-69
2023/05/06 01:43:14;;;;;;;;;;;;;;;;;;5093641;28;19912;-69
2023/05/06 01:45:40;;;;;;;;;;;;;;;;;;5093559;28;19917;-69
2023/05/06 01:48:06;;;;;;;;;;;;;;;;;;5093492;28;19908;-69
2023/05/06 01:50:32;;;;;;;;;;;;;;;;;;5093649;28;19915;-69
2023/05/06 01:52:58;;;;;;;;;;;;;;;;;;5093720;28;19995;-69
2023/05/06 01:55:24;;;;;;;;;;;;;;;;;;5093218;28;19908;-69
2023/05/06 01:57:50;;;;;;;;;;;;;;;;;;5093481;28;19915;-69
2023/05/06 02:00:16;;;;;;;;;;;;;;;;;;5093788;28;19944;-69
2023/05/06 02:02:42;;;;;;;;;;;;;;;;;;5093100;28;19908;-69
2023/05/06 02:05:08;;;;;;;;;;;;;;;;;;5093726;28;19908;-69
2023/05/06 02:07:34;;;;;;;;;;;;;;;;;;5075309;28;20020;-69
2023/05/06 02:10:00;;;;;;;;;;;;;;;;;;5093188;28;19908;-69
2023/05/06 02:12:26;;;;;;;;;;;;;;;;;;5076022;28;20278;-69
2023/05/06 02:14:52;;;;;;;;;;;;;;;;;;5097315;28;19959;-69
2023/05/06 02:17:18;;;;;;;;;;;;;;;;;;5096833;28;19965;-69
2023/05/06 02:19:44;;;;;;;;;;;;;;;;;;5097209;28;19938;-69
2023/05/06 02:22:10;;;;;;;;;;;;;;;;;;5097265;28;19929;-69
2023/05/06 02:24:36;;;;;;;;;;;;;;;;;;5096730;28;19908;-69
2023/05/06 02:27:03;;;;;;;;;;;;;;;;;;5096851;28;19921;-69
2023/05/06 02:29:29;;;;;;;;;;;;;;;;;;5097330;28;19915;-69
2023/05/06 02:31:55;;;;;;;;;;;;;;;;;;5078416;28;19908;-69
2023/05/06 02:34:20;;;;;;;;;;;;;;;;;;5096964;28;19908;-69
2023/05/06 02:36:46;;;;;;;;;;;;;;;;;;5096787;28;19908;-69
2023/05/06 02:39:12;;;;;;;;;;;;;;;;;;5096424;28;19912;-69
2023/05/06 02:41:38;;;;;;;;;;;;;;;;;;5096760;28;20337;-69
2023/05/06 02:44:05;;;;;;;;;;;;;;;;;;5096292;28;19917;-69
2023/05/06 02:46:30;;;;;;;;;;;;;;;;;;5078380;28;20402;-69
2023/05/06 02:48:56;;;;;;;;;;;;;;;;;;5078455;28;19908;-69
2023/05/06 02:51:22;;;;;;;;;;;;;;;;;;5096249;28;19912;-68
2023/05/06 02:53:48;;;;;;;;;;;;;;;;;;5096592;28;19943;-68
2023/05/06 02:56:14;;;;;;;;;;;;;;;;;;5096780;28;19908;-69
2023/05/06 02:58:40;;;;;;;;;;;;;;;;;;5096134;28;20449;-68
2023/05/06 03:01:06;;;;;;;;;;;;;;;;;;5096414;28;20273;-69
2023/05/06 03:03:32;;;;;;;;;;;;;;;;;;5096384;28;19908;-69
2023/05/06 03:05:58;;;;;;;;;;;;;;;;;;5095849;28;19955;-69
2023/05/06 03:08:24;;;;;;;;;;;;;;;;;;5096575;28;19915;-69
2023/05/06 03:10:50;;;;;;;;;;;;;;;;;;5096251;28;20003;-69
2023/05/06 03:13:16;;;;;;;;;;;;;;;;;;5095832;28;19908;-69
2023/05/06 03:15:42;;;;;;;;;;;;;;;;;;5078006;28;19977;-69
2023/05/06 03:18:08;;;;;;;;;;;;;;;;;;5096567;28;19916;-69
2023/05/06 03:20:34;;;;;;;;;;;;;;;;;;5095726;28;20364;-69
2023/05/06 03:23:00;;;;;;;;;;;;;;;;;;5095943;28;19998;-68
2023/05/06 03:25:26;;;;;;;;;;;;;;;;;;5095790;28;19961;-68
2023/05/06 03:27:52;;;;;;;;;;;;;;;;;;5095578;28;19912;-69
2023/05/06 03:30:18;;;;;;;;;;;;;;;;;;5095887;28;19908;-69
2023/05/06 03:32:44;;;;;;;;;;;;;;;;;;5096132;28;19908;-69
2023/05/06 03:35:10;;;;;;;;;;;;;;;;;;5095413;28;19908;-69
2023/05/06 03:37:36;;;;;;;;;;;;;;;;;;5095754;28;19908;-69
2023/05/06 03:40:03;;;;;;;;;;;;;;;;;;5095678;28;19969;-69
2023/05/06 03:42:29;;;;;;;;;;;;;;;;;;5095236;28;19908;-69
2023/05/06 03:44:55;;;;;;;;;;;;;;;;;;5095641;28;20372;-70
2023/05/06 03:47:21;;;;;;;;;;;;;;;;;;5076914;28;19923;-69
2023/05/06 03:49:47;;;;;;;;;;;;;;;;;;5095500;28;19954;-69
2023/05/06 03:52:13;;;;;;;;;;;;;;;;;;5095358;28;20002;-69
2023/05/06 03:54:39;;;;;;;;;;;;;;;;;;5094957;28;19908;-69
2023/05/06 03:57:05;;;;;;;;;;;;;;;;;;5095551;28;20425;-69
2023/05/06 03:59:30;;;;;;;;;;;;;;;;;;5095301;28;19916;-69
2023/05/06 04:01:56;;;;;;;;;;;;;;;;;;5076634;28;19908;-69
2023/05/06 04:04:22;;;;;;;;;;;;;;;;;;5095249;28;19912;-69
2023/05/06 04:06:48;;;;;;;;;;;;;;;;;;5095141;28;19923;-69
2023/05/06 04:09:14;;;;;;;;;;;;;;;;;;5094680;28;19908;-69
2023/05/06 04:11:40;;;;;;;;;;;;;;;;;;5095110;28;19908;-70
2023/05/06 04:14:06;;;;;;;;;;;;;;;;;;5094946;28;19908;-68
2023/05/06 04:16:32;;;;;;;;;;;;;;;;;;5094559;28;19908;-69
2023/05/06 04:18:58;;;;;;;;;;;;;;;;;;5094988;28;19916;-68
2023/05/06 04:21:24;;;;;;;;;;;;;;;;;;5094973;28;19912;-69
2023/05/06 04:23:50;;;;;;;;;;;;;;;;;;5094459;28;19914;-68
2023/05/06 04:26:16;;;;;;;;;;;;;;;;;;5094538;28;19970;-69
2023/05/06 04:28:42;;;;;;;;;;;;;;;;;;5094690;28;19908;-69
2023/05/06 04:31:09;;;;;;;;;;;;;;;;;;5094259;28;19908;-69
2023/05/06 04:33:35;;;;;;;;;;;;;;;;;;5094673;28;20319;-69
2023/05/06 04:36:02;;;;;;;;;;;;;;;;;;5094176;28;19938;-69
2023/05/06 04:38:30;;;;;;;;;;;;;;;;;;5094166;28;20379;-69
2023/05/06 04:40:57;;;;;;;;;;;;;;;;;;5094513;28;19915;-69
2023/05/06 04:43:23;;;;;;;;;;;;;;;;;;5094719;28;20276;-68
2023/05/06 04:45:49;;;;;;;;;;;;;;;;;;5093959;28;19912;-69
2023/05/06 04:48:15;;;;;;;;;;;;;;;;;;5094418;28;19919;-69
2023/05/06 04:50:41;;;;;;;;;;;;;;;;;;5094197;28;19908;-69
2023/05/06 04:53:06;;;;;;;;;;;;;;;;;;5094351;28;19915;-69
2023/05/06 04:55:33;;;;;;;;;;;;;;;;;;5075992;28;19918;-69
2023/05/06 04:57:58;;;;;;;;;;;;;;;;;;5093745;28;19908;-68
2023/05/06 05:00:26;;;;;;;;;;;;;;;;;;5094189;28;19908;-68
2023/05/06 05:02:52;;;;;;;;;;;;;;;;;;5094484;28;20326;-68
2023/05/06 05:05:18;;;;;;;;;;;;;;;;;;5093780;28;19930;-69
2023/05/06 05:07:44;;;;;;;;;;;;;;;;;;5094115;28;19916;-68
2023/05/06 05:10:10;;;;;;;;;;;;;;;;;;5094226;28;19908;-69
2023/05/06 05:12:35;;;;;;;;;;;;;;;;;;5093654;28;20317;-69
2023/05/06 05:15:02;;;;;;;;;;;;;;;;;;5076011;28;20453;-68
2023/05/06 05:17:27;;;;;;;;;;;;;;;;;;5093998;28;19934;-69
2023/05/06 05:19:53;;;;;;;;;;;;;;;;;;5093542;28;19908;-69
2023/05/06 05:22:19;;;;;;;;;;;;;;;;;;5094215;28;19912;-69
2023/05/06 05:24:45;;;;;;;;;;;;;;;;;;5094166;28;19915;-69
2023/05/06 05:27:11;;;;;;;;;;;;;;;;;;5093347;28;19920;-69
2023/05/06 05:29:37;;;;;;;;;;;;;;;;;;5094117;28;20391;-69
2023/05/06 05:32:03;;;;;;;;;;;;;;;;;;5093912;28;19920;-69
2023/05/06 05:34:29;;;;;;;;;;;;;;;;;;5093403;28;20002;-69
2023/05/06 05:36:56;;;;;;;;;;;;;;;;;;5093801;28;19978;-69
2023/05/06 05:39:22;;;;;;;;;;;;;;;;;;5093721;28;19912;-69
2023/05/06 05:41:48;;;;;;;;;;;;;;;;;;5093347;28;20330;-69
2023/05/06 05:44:14;;;;;;;;;;;;;;;;;;5093757;28;19950;-69
2023/05/06 05:46:40;;;;;;;;;;;;;;;;;;5093694;28;20064;-69
2023/05/06 05:49:06;;;;;;;;;;;;;;;;;;5096893;28;19915;-69
2023/05/06 05:51:32;;;;;;;;;;;;;;;;;;5097743;28;19908;-69
2023/05/06 05:54:43;;;;;;;;;;;;;;;;;;5111536;27;19915;-68
2023/05/06 05:57:09;;;;;;;;;;;;;;;;;;5111765;28;20007;-68
2023/05/06 05:59:35;;;;;;;;;;;;;;;;;;5111560;28;19908;-68
2023/05/06 06:02:01;;;;;;;;;;;;;;;;;;5111280;28;19908;-68
2023/05/06 06:05:12;;;;;;;;;;;;;;;;;;5153055;27;20010;-68
2023/05/06 06:07:37;;;;;;;;;;;;;;;;;;5152960;27;20252;-68
2023/05/06 06:10:03;;;;;;;;;;;;;;;;;;5152506;27;19994;-68
2023/05/06 06:12:29;;;;;;;;;;;;;;;;;;5152881;27;19907;-68
2023/05/06 06:15:49;;;;;;;;;;;;;;;;;;5111782;27;19916;-68
2023/05/06 06:18:15;;;;;;;;;;;;;;;;;;5110456;28;19912;-68
2023/05/06 06:23:10;;;;;;;;;;;;;;;;;;5111478;27;19912;-68
2023/05/06 06:25:35;;;;;;;;;;;;;;;;;;5112007;28;19912;-68
2023/05/06 06:28:01;;;;;;;;;;;;;;;;;;5111643;28;19914;-69
2023/05/06 06:32:39;;;;;;;;;;;;;;;;;;5112075;27;19916;-69
2023/05/06 06:35:42;;;;;;;;;;;;;;;;;;5153455;27;19924;-70
2023/05/06 06:39:45;;;;;;;;;;;;;;;;;;5111840;27;20380;-70
2023/05/06 06:49:01;;;;;;;;;;;;;;;;;;5111746;27;19923;-70
2023/05/06 06:51:27;;;;;;;;;;;;;;;;;;5111398;28;20014;-70
2023/05/06 06:54:45;;;;;;;;;;;;;;;;;;5112049;27;19912;-68
2023/05/06 06:57:11;;;;;;;;;;;;;;;;;;5111370;28;20006;-68
2023/05/06 06:59:37;;;;;;;;;;;;;;;;;;5111584;28;19909;-68
2023/05/06 07:02:03;;;;;;;;;;;;;;;;;;5111645;28;20359;-70
2023/05/06 07:06:24;;;;;;;;;;;;;;;;;;5111371;27;19912;-69
2023/05/06 07:08:50;;;;;;;;;;;;;;;;;;5111729;28;19991;-69
2023/05/06 07:11:16;;;;;;;;;;;;;;;;;;5111227;28;19930;-70
2023/05/06 07:14:02;;;;;;;;;;;;;;;;;;5091577;27;19918;-68
2023/05/06 07:17:00;;;;;;;;;;;;;;;;;;5091664;27;19922;-69
2023/05/06 07:21:31;;;;;;;;;;;;;;;;;;5092173;27;19916;-69
2023/05/06 07:26:13;;;;;;;;;;;;;;;;;;5111590;27;19915;-70
2023/05/06 07:28:39;;;;;;;;;;;;;;;;;;5111734;28;19912;-70
2023/05/06 07:32:24;;;;;;;;;;;;;;;;;;5091087;27;19916;-68
2023/05/06 07:34:50;;;;;;;;;;;;;;;;;;5091249;28;20356;-68
2023/05/06 07:37:35;;;;;;;;;;;;;;;;;;5112137;27;19916;-70
2023/05/06 07:40:01;;;;;;;;;;;;;;;;;;5109960;28;20337;-69
2023/05/06 07:42:27;;;;;;;;;;;;;;;;;;5110391;28;19938;-70
2023/05/06 07:47:52;;;;;;;;;;;;;;;;;;5091147;27;19917;-70
2023/05/06 07:50:18;;;;;;;;;;;;;;;;;;5091350;28;20444;-70
2023/05/06 07:54:07;;;;;;;;;;;;;;;;;;5051333;28;19923;-69
2023/05/06 07:57:09;;;;;;;;;;;;;;;;;;5092006;27;19916;-69
2023/05/06 07:59:34;;;;;;;;;;;;;;;;;;5091423;28;20003;-69
2023/05/06 08:02:00;;;;;;;;;;;;;;;;;;5090851;28;20326;-69
2023/05/06 08:06:27;;;;;;;;;;;;;;;;;;5112583;27;19916;-70
2023/05/06 08:10:57;;;;;;;;;;;;;;;;;;5111880;27;19915;-70
2023/05/06 08:13:23;;;;;;;;;;;;;;;;;;5111762;28;20011;-70
2023/05/06 08:19:26;;;;;;;;;;;;;;;;;;5071412;28;20410;-70
2023/05/06 08:21:52;;;;;;;;;;;;;;;;;;5070793;28;19917;-69
2023/05/06 08:24:18;;;;;;;;;;;;;;;;;;5071608;28;20345;-69
2023/05/06 08:30:21;;;;;;;;;;;;;;;;;;5111578;27;19922;-69
2023/05/06 08:35:18;;;;;;;;;;;;;;;;;;5091619;27;19922;-69
2023/05/06 08:37:44;;;;;;;;;;;;;;;;;;5089583;28;19985;-69
2023/05/06 08:42:11;;;;;;;;;;;;;;;;;;5071889;28;19917;-69
2023/05/06 08:44:37;;;;;;;;;;;;;;;;;;5070804;28;19913;-69
2023/05/06 08:47:03;;;;;;;;;;;;;;;;;;5069620;28;19956;-69
2023/05/06 08:49:29;;;;;;;;;;;;;;;;;;5069733;28;19916;-69
2023/05/06 08:51:55;;;;;;;;;;;;;;;;;;5070775;28;19916;-69
2023/05/06 08:54:21;;;;;;;;;;;;;;;;;;5070850;28;19909;-69
2023/05/06 08:56:47;;;;;;;;;;;;;;;;;;5070631;28;20328;-68
2023/05/06 09:01:05;;;;;;;;;;;;;;;;;;5092136;27;19923;-70
2023/05/06 09:03:31;;;;;;;;;;;;;;;;;;5091354;28;19999;-69
2023/05/06 09:08:08;;;;;;;;;;;;;;;;;;5112110;27;19916;-69
2023/05/06 09:12:26;;;;;;;;;;;;;;;;;;5111477;27;19916;-69
2023/05/06 09:14:54;;;;;;;;;;;;;;;;;;5111746;28;20369;-69
2023/05/06 09:18:43;;;;;;;;;;;;;;;;;;5091476;27;20293;-69
2023/05/06 09:23:46;;;;;;;;;;;;;;;;;;5091528;27;19923;-69
2023/05/06 09:26:12;;;;;;;;;;;;;;;;;;5091069;28;19912;-69
2023/05/06 09:28:38;;;;;;;;;;;;;;;;;;5091295;28;19912;-69
2023/05/06 09:31:04;;;;;;;;;;;;;;;;;;5091232;28;19912;-70
2023/05/06 09:33:29;;;;;;;;;;;;;;;;;;5090840;28;19908;-68
2023/05/06 09:36:31;;;;;;;;;;;;;;;;;;5092135;27;19916;-69
2023/05/06 09:38:57;;;;;;;;;;;;;;;;;;5090902;28;19920;-70
2023/05/06 09:41:26;;;;;;;;;;;;;;;;;;5090034;28;19998;-69
2023/05/06 09:50:18;;;;;;;;;;;;;;;;;;5112158;27;19915;-69
2023/05/06 09:56:08;;;;;;;;;;;;;;;;;;5112008;27;19916;-68
2023/05/06 09:58:34;;;;;;;;;;;;;;;;;;5111713;28;20007;-68
2023/05/06 10:01:00;;;;;;;;;;;;;;;;;;5110027;28;20428;-69
2023/05/06 10:03:26;;;;;;;;;;;;;;;;;;5110307;28;20299;-69
2023/05/06 10:05:52;;;;;;;;;;;;;;;;;;5111580;28;19908;-68
2023/05/06 10:09:32;;;;;;;;;;;;;;;;;;5071951;28;20269;-68
2023/05/06 10:11:58;;;;;;;;;;;;;;;;;;5071077;28;19999;-69
2023/05/06 10:14:24;;;;;;;;;;;;;;;;;;5069339;28;19919;-70
2023/05/06 10:17:56;;;;;;;;;;;;;;;;;;5111763;27;20307;-69
2023/05/06 10:20:22;;;;;;;;;;;;;;;;;;5111637;28;20006;-69
2023/05/06 10:22:48;;;;;;;;;;;;;;;;;;5111129;28;20369;-70
2023/05/06 10:28:54;;;;;;;;;;;;;;;;;;5173600;27;20002;-69
2023/05/06 10:31:20;;;;;;;;;;;;;;;;;;5173895;27;19922;-69
2023/05/06 10:35:34;;;;;;;;;;;;;;;;;;5091181;28;20380;-69
2023/05/06 10:38:00;;;;;;;;;;;;;;;;;;5091267;28;19944;-69
2023/05/06 10:40:25;;;;;;;;;;;;;;;;;;5089855;28;19916;-68
2023/05/06 10:42:51;;;;;;;;;;;;;;;;;;5091055;28;19969;-69
2023/05/06 10:45:17;;;;;;;;;;;;;;;;;;5091157;28;19912;-69
2023/05/06 10:49:56;;;;;;;;;;;;;;;;;;5111290;27;20311;-68
2023/05/06 10:52:22;;;;;;;;;;;;;;;;;;5111571;28;20014;-69
2023/05/06 11:00:19;;;;;;;;;;;;;;;;;;5091314;28;20287;-68
2023/05/06 11:02:45;;;;;;;;;;;;;;;;;;5091455;28;19981;-69
2023/05/06 11:05:11;;;;;;;;;;;;;;;;;;5090857;28;20365;-69
2023/05/06 11:12:20;;;;;;;;;;;;;;;;;;5111239;27;19912;-68
2023/05/06 11:16:35;;;;;;;;;;;;;;;;;;5112327;27;19993;-68
2023/05/06 11:19:01;;;;;;;;;;;;;;;;;;5111229;28;20016;-68
2023/05/06 11:24:01;;;;;;;;;;;;;;;;;;5091454;27;20402;-68
2023/05/06 11:26:26;;;;;;;;;;;;;;;;;;5090872;28;19913;-69
2023/05/06 11:28:53;;;;;;;;;;;;;;;;;;5090458;28;20369;-69
2023/05/06 11:31:19;;;;;;;;;;;;;;;;;;5091254;28;19908;-69
2023/05/06 11:33:45;;;;;;;;;;;;;;;;;;5090877;28;19992;-69
2023/05/06 11:36:11;;;;;;;;;;;;;;;;;;5091089;28;19913;-69
2023/05/06 11:38:37;;;;;;;;;;;;;;;;;;5090599;28;19909;-68
2023/05/06 11:41:03;;;;;;;;;;;;;;;;;;5091081;28;20003;-69
2023/05/06 11:43:29;;;;;;;;;;;;;;;;;;5090972;28;19923;-69
2023/05/06 11:48:08;;;;;;;;;;;;;;;;;;5112088;27;19916;-69
2023/05/06 11:52:06;;;;;;;;;;;;;;;;;;5092057;27;19918;-69
2023/05/06 11:54:32;;;;;;;;;;;;;;;;;;5091046;28;19998;-69
2023/05/06 11:56:58;;;;;;;;;;;;;;;;;;5091297;28;19908;-69
2023/05/06 11:59:23;;;;;;;;;;;;;;;;;;5091222;28;19913;-69
2023/05/06 12:02:45;;;;;;;;;;;;;;;;;;5112441;27;20365;-69
2023/05/06 12:07:24;;;;;;;;;;;;;;;;;;5111852;27;19923;-68
2023/05/06 12:09:50;;;;;;;;;;;;;;;;;;5111846;28;19934;-70
2023/05/06 12:12:16;;;;;;;;;;;;;;;;;;5111784;28;19908;-70
2023/05/06 12:14:42;;;;;;;;;;;;;;;;;;5111225;28;19908;-70
2023/05/06 12:17:08;;;;;;;;;;;;;;;;;;5111616;28;19908;-71
2023/05/06 12:19:34;;;;;;;;;;;;;;;;;;5111789;28;19912;-69
2023/05/06 12:22:00;;;;;;;;;;;;;;;;;;5111156;28;19944;-68
2023/05/06 12:28:07;;;;;;;;;;;;;;;;;;5152837;27;19916;-68
2023/05/06 12:32:45;;;;;;;;;;;;;;;;;;5152979;27;19922;-70
2023/05/06 12:35:14;;;;;;;;;;;;;;;;;;5152429;27;20428;-68
2023/05/06 12:37:40;;;;;;;;;;;;;;;;;;5153083;27;19907;-69
2023/05/06 12:40:06;;;;;;;;;;;;;;;;;;5153331;27;19959;-69
2023/05/06 12:42:32;;;;;;;;;;;;;;;;;;5152350;27;19911;-69
2023/05/06 12:44:58;;;;;;;;;;;;;;;;;;5152893;27;19914;-69
2023/05/06 12:48:08;;;;;;;;;;;;;;;;;;5091565;27;19912;-69
2023/05/06 12:50:34;;;;;;;;;;;;;;;;;;5091059;28;19916;-70
2023/05/06 12:53:00;;;;;;;;;;;;;;;;;;5091600;28;20373;-69
2023/05/06 12:55:26;;;;;;;;;;;;;;;;;;5091213;28;20323;-69
2023/05/06 12:57:52;;;;;;;;;;;;;;;;;;5091091;28;19958;-69
2023/05/06 13:00:18;;;;;;;;;;;;;;;;;;5089896;28;19909;-69
2023/05/06 13:02:44;;;;;;;;;;;;;;;;;;5091200;28;19939;-69
2023/05/06 13:05:10;;;;;;;;;;;;;;;;;;5090635;28;19908;-69
2023/05/06 13:07:36;;;;;;;;;;;;;;;;;;5090990;28;19916;-69
2023/05/06 13:10:02;;;;;;;;;;;;;;;;;;5090616;28;19909;-69
2023/05/06 13:12:28;;;;;;;;;;;;;;;;;;5090855;28;20270;-69
2023/05/06 13:14:54;;;;;;;;;;;;;;;;;;5090908;28;19924;-69
2023/05/06 13:17:20;;;;;;;;;;;;;;;;;;5090475;28;19931;-69
2023/05/06 13:19:46;;;;;;;;;;;;;;;;;;5090816;28;20360;-69
2023/05/06 13:22:12;;;;;;;;;;;;;;;;;;5090821;28;20352;-69
2023/05/06 13:24:38;;;;;;;;;;;;;;;;;;5090344;28;20406;-68
2023/05/06 13:27:04;;;;;;;;;;;;;;;;;;5090543;28;19985;-69
2023/05/06 13:29:30;;;;;;;;;;;;;;;;;;5090818;28;19995;-69
2023/05/06 13:31:56;;;;;;;;;;;;;;;;;;5090158;28;20429;-69
2023/05/06 13:34:22;;;;;;;;;;;;;;;;;;5090569;28;19947;-69
2023/05/06 13:36:48;;;;;;;;;;;;;;;;;;5090456;28;19915;-69
2023/05/06 13:39:15;;;;;;;;;;;;;;;;;;5090251;28;19938;-69
2023/05/06 13:41:41;;;;;;;;;;;;;;;;;;5090384;28;19954;-69
2023/05/06 13:44:07;;;;;;;;;;;;;;;;;;5090347;28;19991;-69
2023/05/06 13:46:32;;;;;;;;;;;;;;;;;;5097184;28;19920;-69
2023/05/06 13:48:58;;;;;;;;;;;;;;;;;;5110577;28;20272;-69
2023/05/06 13:51:31;;;;;;;;;;;;;;;;;;5110652;28;20298;-69
2023/05/06 13:53:57;;;;;;;;;;;;;;;;;;5110167;28;19908;-69
2023/05/06 13:56:23;;;;;;;;;;;;;;;;;;5092162;28;20276;-68
2023/05/06 13:58:49;;;;;;;;;;;;;;;;;;5100025;28;20394;-68
2023/05/06 14:01:15;;;;;;;;;;;;;;;;;;5096252;28;19919;-69
2023/05/06 14:03:41;;;;;;;;;;;;;;;;;;5096931;28;20002;-69
2023/05/06 14:06:07;;;;;;;;;;;;;;;;;;5096556;28;19912;-68
2023/05/06 14:08:33;;;;;;;;;;;;;;;;;;5096433;28;19958;-69
2023/05/06 14:10:59;;;;;;;;;;;;;;;;;;5096765;28;19916;-69
2023/05/06 14:13:25;;;;;;;;;;;;;;;;;;5096376;28;19912;-69
2023/05/06 14:15:51;;;;;;;;;;;;;;;;;;5096735;28;19931;-69
2023/05/06 14:18:17;;;;;;;;;;;;;;;;;;5078181;28;19912;-69
2023/05/06 14:20:42;;;;;;;;;;;;;;;;;;5095962;28;20284;-69
2023/05/06 14:23:08;;;;;;;;;;;;;;;;;;5096320;28;19915;-69
2023/05/06 14:25:34;;;;;;;;;;;;;;;;;;5096306;28;19919;-68
2023/05/06 14:28:00;;;;;;;;;;;;;;;;;;5095665;28;19942;-70
2023/05/06 14:30:26;;;;;;;;;;;;;;;;;;5078006;28;20006;-70
2023/05/06 14:32:52;;;;;;;;;;;;;;;;;;5096120;28;19916;-70
2023/05/06 14:35:18;;;;;;;;;;;;;;;;;;5095727;28;19908;-69
2023/05/06 14:37:44;;;;;;;;;;;;;;;;;;5095999;28;20364;-70
2023/05/06 14:40:10;;;;;;;;;;;;;;;;;;5096741;28;19931;-70
2023/05/06 14:42:37;;;;;;;;;;;;;;;;;;5095560;28;20368;-69
2023/05/06 14:45:02;;;;;;;;;;;;;;;;;;5096104;28;20432;-69
2023/05/06 14:47:28;;;;;;;;;;;;;;;;;;5095548;28;19920;-70
2023/05/06 14:49:55;;;;;;;;;;;;;;;;;;5095640;28;19995;-70
2023/05/06 14:52:21;;;;;;;;;;;;;;;;;;5095910;28;20422;-69
2023/05/06 14:54:47;;;;;;;;;;;;;;;;;;5095768;28;19928;-69
2023/05/06 14:57:13;;;;;;;;;;;;;;;;;;5095282;28;19908;-69
2023/05/06 14:59:38;;;;;;;;;;;;;;;;;;5095561;28;19989;-69
2023/05/06 15:02:04;;;;;;;;;;;;;;;;;;5095517;28;19912;-69
2023/05/06 15:04:30;;;;;;;;;;;;;;;;;;5095031;28;20007;-69
2023/05/06 15:06:56;;;;;;;;;;;;;;;;;;5095298;28;19916;-69
2023/05/06 15:09:22;;;;;;;;;;;;;;;;;;5094484;28;19936;-69
2023/05/06 15:11:48;;;;;;;;;;;;;;;;;;5076620;28;20276;-69
2023/05/06 15:14:14;;;;;;;;;;;;;;;;;;5095556;28;20361;-70
2023/05/06 15:16:40;;;;;;;;;;;;;;;;;;5094526;28;20287;-70
2023/05/06 15:19:06;;;;;;;;;;;;;;;;;;5095169;28;20416;-70
2023/05/06 15:21:32;;;;;;;;;;;;;;;;;;5076950;28;20256;-70
2023/05/06 15:23:58;;;;;;;;;;;;;;;;;;5094971;28;20414;-69
2023/05/06 15:26:24;;;;;;;;;;;;;;;;;;5095168;28;20421;-69
2023/05/06 15:28:50;;;;;;;;;;;;;;;;;;5094944;28;20320;-70
2023/05/06 15:31:16;;;;;;;;;;;;;;;;;;5076421;28;19953;-70
2023/05/06 15:33:42;;;;;;;;;;;;;;;;;;5094972;28;19993;-69
2023/05/06 15:36:08;;;;;;;;;;;;;;;;;;5094946;28;19908;-71
2023/05/06 15:38:33;;;;;;;;;;;;;;;;;;5094500;28;19908;-68
2023/05/06 15:40:59;;;;;;;;;;;;;;;;;;5094891;28;19914;-70
2023/05/06 15:43:25;;;;;;;;;;;;;;;;;;5095046;28;20048;-70
2023/05/06 15:45:51;;;;;;;;;;;;;;;;;;5093962;28;19973;-69
2023/05/06 15:48:17;;;;;;;;;;;;;;;;;;5076557;28;20265;-70
2023/05/06 15:50:43;;;;;;;;;;;;;;;;;;5094696;28;19999;-69
2023/05/06 15:53:09;;;;;;;;;;;;;;;;;;5094209;28;19931;-69
2023/05/06 15:55:35;;;;;;;;;;;;;;;;;;5094833;28;19912;-68
2023/05/06 15:58:01;;;;;;;;;;;;;;;;;;5094508;28;19943;-68
2023/05/06 16:00:27;;;;;;;;;;;;;;;;;;5094318;28;19915;-68
2023/05/06 16:02:53;;;;;;;;;;;;;;;;;;5094708;28;20424;-69
2023/05/06 16:05:19;;;;;;;;;;;;;;;;;;5094502;28;19951;-69
2023/05/06 16:07:45;;;;;;;;;;;;;;;;;;5093993;28;19960;-69
2023/05/06 16:10:11;;;;;;;;;;;;;;;;;;5076177;28;19915;-70
2023/05/06 16:12:37;;;;;;;;;;;;;;;;;;5075947;28;19915;-70
2023/05/06 16:15:03;;;;;;;;;;;;;;;;;;5093688;28;19998;-69
2023/05/06 16:17:29;;;;;;;;;;;;;;;;;;5094056;28;19961;-69
2023/05/06 16:19:55;;;;;;;;;;;;;;;;;;5093972;28;19912;-69
2023/05/06 16:22:21;;;;;;;;;;;;;;;;;;5093764;28;19908;-69
2023/05/06 16:24:46;;;;;;;;;;;;;;;;;;5075827;28;19908;-69
2023/05/06 16:27:12;;;;;;;;;;;;;;;;;;5093504;28;19923;-69
2023/05/06 16:29:38;;;;;;;;;;;;;;;;;;5094244;28;20265;-69
2023/05/06 16:32:04;;;;;;;;;;;;;;;;;;5093877;28;19912;-68
2023/05/06 16:34:30;;;;;;;;;;;;;;;;;;5093786;28;19908;-69
2023/05/06 16:36:59;;;;;;;;;;;;;;;;;;5093936;28;20378;-69
2023/05/06 16:39:25;;;;;;;;;;;;;;;;;;5093798;28;19912;-69
2023/05/06 16:41:51;;;;;;;;;;;;;;;;;;5093471;28;19908;-70
2023/05/06 16:44:17;;;;;;;;;;;;;;;;;;5093735;28;19954;-70
2023/05/06 16:46:42;;;;;;;;;;;;;;;;;;5093543;28;19954;-69
2023/05/06 16:49:08;;;;;;;;;;;;;;;;;;5093228;28;19915;-70
2023/05/06 16:51:34;;;;;;;;;;;;;;;;;;5093789;28;19935;-70
2023/05/06 16:54:00;;;;;;;;;;;;;;;;;;5093841;28;19908;-70
2023/05/06 16:56:26;;;;;;;;;;;;;;;;;;5093419;28;19912;-69
2023/05/06 16:58:52;;;;;;;;;;;;;;;;;;5093943;28;20290;-69
2023/05/06 17:01:18;;;;;;;;;;;;;;;;;;5075553;28;19974;-69
2023/05/06 17:03:44;;;;;;;;;;;;;;;;;;5093297;28;20343;-68
2023/05/06 17:06:49;;;;;;;;;;;;;;;;;;5091599;27;19923;-69
2023/05/06 17:11:12;;;;;;;;;;;;;;;;;;5091089;27;19922;-70
2023/05/06 17:13:37;;;;;;;;;;;;;;;;;;5091718;28;19912;-69
2023/05/06 17:16:03;;;;;;;;;;;;;;;;;;5091025;28;19912;-69
2023/05/06 17:18:29;;;;;;;;;;;;;;;;;;5091273;28;19923;-69
2023/05/06 17:22:45;;;;;;;;;;;;;;;;;;5058645;27;2101038;-69
2023/05/06 17:25:12;;;;;;;;;;;;;;;;;;5131829;28;20260;-68
2023/05/06 17:27:38;;;;;;;;;;;;;;;;;;5132145;28;19908;-67
2023/05/06 17:30:04;;;;;;;;;;;;;;;;;;5132079;28;20275;-68
2023/05/06 17:32:30;;;;;;;;;;;;;;;;;;5113146;28;20280;-68
2023/05/06 17:34:56;;;;;;;;;;;;;;;;;;5131970;28;19914;-69
2023/05/06 17:37:21;;;;;;;;;;;;;;;;;;5131494;28;19946;-69
2023/05/06 17:39:47;;;;;;;;;;;;;;;;;;5131870;28;19907;-68
2023/05/06 17:42:13;;;;;;;;;;;;;;;;;;5131766;28;19915;-69
2023/05/06 17:44:41;;;;;;;;;;;;;;;;;;5131455;28;19912;-69
2023/05/06 17:47:07;;;;;;;;;;;;;;;;;;5113331;28;20052;-69
2023/05/06 17:49:33;;;;;;;;;;;;;;;;;;5131687;28;19948;-69
2023/05/06 17:55:00;;;;;;;;;;;;;;;;;;5091629;27;20017;-70
2023/05/06 17:57:26;;;;;;;;;;;;;;;;;;5091481;28;19999;-70
2023/05/06 17:59:52;;;;;;;;;;;;;;;;;;5090857;28;19909;-69
2023/05/06 18:02:18;;;;;;;;;;;;;;;;;;5091198;28;19908;-70
2023/05/06 18:07:20;;;;;;;;;;;;;;;;;;5090755;27;19920;-69
2023/05/06 18:09:50;;;;;;;;;;;;;;;;;;5091330;28;20019;-69
2023/05/06 18:12:16;;;;;;;;;;;;;;;;;;5091526;28;20383;-68
2023/05/06 18:19:31;;;;;;;;;;;;;;;;;;5152984;27;19915;-69
2023/05/06 18:27:21;;;;;;;;;;;;;;;;;;5152844;27;19912;-71
2023/05/06 18:33:30;;;;;;;;;;;;;;;;;;5173453;27;20005;-70
2023/05/06 18:42:31;;;;;;;;;;;;;;;;;;5111327;28;19922;-70
2023/05/06 18:49:21;;;;;;;;;;;;;;;;;;5173576;27;19918;-68
2023/05/06 18:55:42;;;;;;;;;;;;;;;;;;5091551;27;20383;-68
2023/05/06 18:58:08;;;;;;;;;;;;;;;;;;5090099;28;20003;-69
2023/05/06 19:01:53;;;;;;;;;;;;;;;;;;5071554;28;19947;-69